createdAt,value
2022-09-27T00:01:12.242Z,89.85
2022-09-27T00:03:39.146Z,89.88
2022-09-27T00:06:08.767Z,89.93
2022-09-27T00:08:36.045Z,90.10
2022-09-27T00:11:07.667Z,90.35
2022-09-27T00:13:34.356Z,90.09
2022-09-27T00:16:01.441Z,90.26
2022-09-27T00:18:28.204Z,90.43
2022-09-27T00:20:54.848Z,90.17
2022-09-27T00:23:21.548Z,90.57
2022-09-27T00:25:57.814Z,90.80
2022-09-27T00:28:25.230Z,91.02
2022-09-27T00:30:52.200Z,91.19
2022-09-27T00:33:18.892Z,91.07
2022-09-27T00:35:45.546Z,91.25
2022-09-27T00:38:12.875Z,91.08
2022-09-27T00:40:39.645Z,91.31
2022-09-27T00:43:15.300Z,91.28
2022-09-27T00:45:41.991Z,91.28
2022-09-27T00:48:10.209Z,91.43
2022-09-27T00:50:38.068Z,91.47
2022-09-27T00:53:05.222Z,91.81
2022-09-27T00:55:38.243Z,91.83
2022-09-27T00:58:05.137Z,92.05
2022-09-27T01:00:31.923Z,91.81
2022-09-27T01:02:58.651Z,91.97
2022-09-27T01:05:27.208Z,92.10
2022-09-27T01:07:59.888Z,92.03
2022-09-27T01:10:33.317Z,92.03
2022-09-27T01:13:37.128Z,92.48
2022-09-27T01:16:10.472Z,92.60
2022-09-27T01:19:04.352Z,92.90
2022-09-27T01:21:49.309Z,92.99
2022-09-27T01:25:04.207Z,93.15
2022-09-27T01:28:04.113Z,93.60
2022-09-27T01:30:48.541Z,93.70
2022-09-27T01:33:40.727Z,94.01
2022-09-27T01:36:21.855Z,93.93
2022-09-27T01:39:03.299Z,93.91
2022-09-27T01:42:02.116Z,93.92
2022-09-27T01:44:55.092Z,94.30
2022-09-27T01:47:24.570Z,94.33
2022-09-27T01:50:05.215Z,94.51
2022-09-27T01:52:37.786Z,94.36
2022-09-27T01:55:06.308Z,94.50
2022-09-27T01:58:14.679Z,94.47
2022-09-27T02:00:43.299Z,94.75
2022-09-27T02:03:22.108Z,94.68
2022-09-27T02:06:17.711Z,94.55
2022-09-27T02:09:04.356Z,94.83
2022-09-27T02:11:47.082Z,94.92
2022-09-27T02:14:38.022Z,95.24
2022-09-27T02:17:51.422Z,95.24
2022-09-27T02:20:31.274Z,95.17
2022-09-27T02:23:04.118Z,95.41
2022-09-27T02:25:37.131Z,95.45
2022-09-27T02:28:27.668Z,95.84
2022-09-27T02:30:55.087Z,95.82
2022-09-27T02:33:30.534Z,95.70
2022-09-27T02:35:57.364Z,95.92
2022-09-27T02:38:24.117Z,96.34
2022-09-27T02:40:51.239Z,96.46
2022-09-27T02:43:19.305Z,96.68
2022-09-27T02:45:46.140Z,96.79
2022-09-27T02:48:15.882Z,96.77
2022-09-27T02:51:04.960Z,96.67
2022-09-27T02:54:25.527Z,96.79
2022-09-27T02:57:18.903Z,96.70
2022-09-27T03:00:08.902Z,96.94
2022-09-27T03:03:09.925Z,97.13
2022-09-27T03:06:02.631Z,97.06
2022-09-27T03:08:29.569Z,97.31
2022-09-27T03:10:56.859Z,97.25
2022-09-27T03:13:23.721Z,97.45
2022-09-27T03:15:50.704Z,97.45
2022-09-27T03:18:35.503Z,97.48
2022-09-27T03:21:20.687Z,97.51
2022-09-27T03:23:47.316Z,97.60
2022-09-27T03:26:14.087Z,97.87
2022-09-27T03:30:41.941Z,97.65
2022-09-27T03:33:09.066Z,97.96
2022-09-27T03:35:42.205Z,97.76
2022-09-27T03:38:09.144Z,97.87
2022-09-27T03:40:36.054Z,98.02
2022-09-27T03:43:02.833Z,97.96
2022-09-27T03:45:30.901Z,98.14
2022-09-27T03:47:57.777Z,98.26
2022-09-27T03:50:25.151Z,98.06
2022-09-27T03:52:53.800Z,98.11
2022-09-27T03:55:20.916Z,98.09
2022-09-27T03:57:48.891Z,98.32
2022-09-27T04:00:17.342Z,98.22
2022-09-27T04:02:44.419Z,98.28
2022-09-27T04:05:27.291Z,98.18
2022-09-27T04:07:56.606Z,98.12
2022-09-27T04:10:24.337Z,98.10
2022-09-27T04:12:50.906Z,98.02
2022-09-27T04:15:18.940Z,97.93
2022-09-27T04:17:51.896Z,98.04
2022-09-27T04:20:35.448Z,98.33
2022-09-27T04:23:12.967Z,98.54
2022-09-27T04:25:44.306Z,98.36
2022-09-27T04:28:40.147Z,98.45
2022-09-27T04:31:08.243Z,98.66
2022-09-27T04:33:38.394Z,98.79
2022-09-27T04:36:25.771Z,98.63
2022-09-27T04:39:05.910Z,98.87
2022-09-27T04:41:36.322Z,98.96
2022-09-27T04:44:04.417Z,99.04
2022-09-27T04:46:31.905Z,98.85
2022-09-27T04:49:00.291Z,99.06
2022-09-27T04:51:27.779Z,98.98
2022-09-27T04:53:55.299Z,98.94
2022-09-27T04:56:22.112Z,99.05
2022-09-27T04:58:48.609Z,98.90
2022-09-27T05:01:15.671Z,98.99
2022-09-27T05:04:00.859Z,99.00
2022-09-27T05:06:27.957Z,98.86
2022-09-27T05:08:57.721Z,98.90
2022-09-27T05:11:42.400Z,98.94
2022-09-27T05:14:30.081Z,98.96
2022-09-27T05:17:18.087Z,99.07
2022-09-27T05:20:10.132Z,99.06
2022-09-27T05:22:43.613Z,99.07
2022-09-27T05:25:10.232Z,99.48
2022-09-27T05:27:38.665Z,99.14
2022-09-27T05:30:07.404Z,99.42
2022-09-27T05:32:43.074Z,99.36
2022-09-27T05:35:27.919Z,99.30
2022-09-27T05:37:57.221Z,99.35
2022-09-27T05:40:40.427Z,99.46
2022-09-27T05:43:08.859Z,99.70
2022-09-27T05:45:36.079Z,99.85
2022-09-27T05:48:07.647Z,99.81
2022-09-27T05:50:39.957Z,99.76
2022-09-27T05:53:06.540Z,99.74
2022-09-27T05:55:33.190Z,99.72
2022-09-27T05:58:04.518Z,99.88
2022-09-27T06:00:45.125Z,99.81
2022-09-27T06:03:30.806Z,99.79
2022-09-27T06:06:15.318Z,99.89
2022-09-27T06:08:48.554Z,99.90
2022-09-27T06:11:18.245Z,99.86
2022-09-27T06:13:46.946Z,99.82
2022-09-27T06:16:13.654Z,99.81
2022-09-27T06:18:43.431Z,99.82
2022-09-27T06:21:12.512Z,99.79
2022-09-27T06:23:41.095Z,99.69
2022-09-27T06:26:19.590Z,99.76
2022-09-27T06:29:09.300Z,99.76
2022-09-27T06:31:39.650Z,99.84
2022-09-27T06:34:44.647Z,99.88
2022-09-27T06:37:11.820Z,99.80
2022-09-27T06:39:38.407Z,99.89
2022-09-27T06:42:31.064Z,100.00
2022-09-27T06:45:05.898Z,99.99
2022-09-27T06:47:50.751Z,100.00
2022-09-27T06:50:25.755Z,100.00
2022-09-27T06:52:52.252Z,100.00
2022-09-27T06:55:19.708Z,100.00
2022-09-27T06:58:04.766Z,100.00
2022-09-27T07:00:32.063Z,100.00
2022-09-27T07:03:34.458Z,100.00
2022-09-27T07:06:20.048Z,100.00
2022-09-27T07:08:52.348Z,100.00
2022-09-27T07:11:19.978Z,100.00
2022-09-27T07:13:46.769Z,100.00
2022-09-27T07:16:15.056Z,100.00
2022-09-27T07:18:42.759Z,100.00
2022-09-27T07:21:09.822Z,100.00
2022-09-27T07:23:37.869Z,100.00
2022-09-27T07:26:09.936Z,100.00
2022-09-27T07:28:36.977Z,100.00
2022-09-27T07:31:03.878Z,100.00
2022-09-27T07:33:31.318Z,100.00
2022-09-27T07:35:59.186Z,100.00
2022-09-27T07:38:26.001Z,100.00
2022-09-27T07:40:52.989Z,100.00
2022-09-27T07:43:20.413Z,100.00
2022-09-27T07:45:47.259Z,100.00
2022-09-27T07:48:25.614Z,100.00
2022-09-27T07:51:18.218Z,100.00
2022-09-27T07:53:55.955Z,100.00
2022-09-27T07:56:49.783Z,100.00
2022-09-27T07:59:18.406Z,100.00
2022-09-27T08:01:45.809Z,100.00
2022-09-27T08:04:12.767Z,100.00
2022-09-27T08:06:39.298Z,100.00
2022-09-27T08:09:06.700Z,100.00
2022-09-27T08:11:33.441Z,100.00
2022-09-27T08:14:01.344Z,100.00
2022-09-27T08:16:33.088Z,100.00
2022-09-27T08:19:18.748Z,100.00
2022-09-27T08:22:07.346Z,100.00
2022-09-27T08:25:00.047Z,100.00
2022-09-27T08:27:59.736Z,100.00
2022-09-27T08:30:40.476Z,100.00
2022-09-27T08:33:08.221Z,100.00
2022-09-27T08:35:36.046Z,100.00
2022-09-27T08:38:03.063Z,100.00
2022-09-27T08:40:51.006Z,100.00
2022-09-27T08:43:22.620Z,100.00
2022-09-27T08:46:12.656Z,100.00
2022-09-27T08:48:39.529Z,100.00
2022-09-27T08:51:06.399Z,100.00
2022-09-27T08:53:37.805Z,100.00
2022-09-27T08:56:06.878Z,100.00
2022-09-27T08:58:44.899Z,100.00
2022-09-27T09:01:18.421Z,100.00
2022-09-27T09:04:07.338Z,100.00
2022-09-27T09:06:40.273Z,100.00
2022-09-27T09:09:19.891Z,100.00
2022-09-27T09:12:38.919Z,100.00
2022-09-27T09:15:17.562Z,100.00
2022-09-27T09:18:05.786Z,100.00
2022-09-27T09:21:15.216Z,100.00
2022-09-27T09:23:56.572Z,100.00
2022-09-27T09:26:38.156Z,100.00
2022-09-27T09:29:29.802Z,100.00
2022-09-27T09:32:08.658Z,100.00
2022-09-27T09:34:46.996Z,100.00
2022-09-27T09:37:19.103Z,100.00
2022-09-27T09:40:05.512Z,100.00
2022-09-27T09:43:07.118Z,100.00
2022-09-27T09:45:36.081Z,100.00
2022-09-27T09:48:16.240Z,100.00
2022-09-27T09:50:51.701Z,100.00
2022-09-27T09:53:26.010Z,100.00
2022-09-27T09:55:57.094Z,100.00
2022-09-27T09:58:27.607Z,100.00
2022-09-27T10:01:00.234Z,100.00
2022-09-27T10:03:27.026Z,100.00
2022-09-27T10:05:53.761Z,100.00
2022-09-27T10:08:20.989Z,100.00
2022-09-27T10:10:50.857Z,100.00
2022-09-27T10:13:40.420Z,100.00
2022-09-27T10:16:11.912Z,100.00
2022-09-27T10:18:40.780Z,100.00
2022-09-27T10:21:12.911Z,100.00
2022-09-27T10:24:00.956Z,100.00
2022-09-27T10:26:43.151Z,100.00
2022-09-27T10:29:18.830Z,100.00
2022-09-27T10:31:47.709Z,100.00
2022-09-27T10:34:23.682Z,100.00
2022-09-27T10:37:06.876Z,100.00
2022-09-27T10:39:34.858Z,100.00
2022-09-27T10:42:02.236Z,100.00
2022-09-27T10:44:37.208Z,100.00
2022-09-27T10:47:18.855Z,100.00
2022-09-27T10:50:06.160Z,100.00
2022-09-27T10:52:41.904Z,100.00
2022-09-27T10:55:27.327Z,100.00
2022-09-27T10:57:54.977Z,100.00
2022-09-27T11:00:24.197Z,100.00
2022-09-27T11:02:59.336Z,100.00
2022-09-27T11:05:30.898Z,100.00
2022-09-27T11:07:58.630Z,100.00
2022-09-27T11:10:42.050Z,100.00
2022-09-27T11:13:11.743Z,100.00
2022-09-27T11:15:56.984Z,100.00
2022-09-27T11:18:33.670Z,100.00
2022-09-27T11:21:10.436Z,100.00
2022-09-27T11:23:55.417Z,100.00
2022-09-27T11:26:28.219Z,100.00
2022-09-27T11:28:57.992Z,100.00
2022-09-27T11:31:46.251Z,100.00
2022-09-27T11:34:37.958Z,100.00
2022-09-27T11:37:46.357Z,100.00
2022-09-27T11:40:25.431Z,100.00
2022-09-27T11:43:01.285Z,100.00
2022-09-27T11:45:45.310Z,100.00
2022-09-27T11:48:38.965Z,100.00
2022-09-27T11:51:36.367Z,100.00
2022-09-27T11:54:16.043Z,100.00
2022-09-27T11:56:59.912Z,100.00
2022-09-27T11:59:36.989Z,100.00
2022-09-27T12:02:13.001Z,100.00
2022-09-27T12:04:48.864Z,100.00
2022-09-27T12:07:22.486Z,100.00
2022-09-27T12:09:54.892Z,100.00
2022-09-27T12:12:27.418Z,100.00
2022-09-27T12:15:06.628Z,100.00
2022-09-27T12:17:45.185Z,100.00
2022-09-27T12:20:24.462Z,100.00
2022-09-27T12:23:02.484Z,100.00
2022-09-27T12:25:44.008Z,100.00
2022-09-27T12:28:36.431Z,100.00
2022-09-27T12:31:30.301Z,100.00
2022-09-27T12:34:26.066Z,100.00
2022-09-27T12:37:02.897Z,100.00
2022-09-27T12:39:40.832Z,100.00
2022-09-27T12:42:44.451Z,100.00
2022-09-27T12:45:27.555Z,100.00
2022-09-27T12:48:09.438Z,100.00
2022-09-27T12:50:41.016Z,100.00
2022-09-27T12:53:13.513Z,100.00
2022-09-27T12:55:54.958Z,100.00
2022-09-27T12:58:27.611Z,100.00
2022-09-27T13:00:58.207Z,100.00
2022-09-27T13:04:13.144Z,100.00
2022-09-27T13:07:08.399Z,100.00
2022-09-27T13:09:42.712Z,100.00
2022-09-27T13:12:22.196Z,100.00
2022-09-27T13:15:04.227Z,100.00
2022-09-27T13:17:50.798Z,100.00
2022-09-27T13:20:33.811Z,100.00
2022-09-27T13:23:02.331Z,100.00
2022-09-27T13:25:59.524Z,100.00
2022-09-27T13:28:57.717Z,100.00
2022-09-27T13:31:53.823Z,100.00
2022-09-27T13:34:42.110Z,100.00
2022-09-27T13:37:43.887Z,100.00
2022-09-27T13:40:14.708Z,100.00
2022-09-27T13:43:10.662Z,100.00
2022-09-27T13:45:57.389Z,100.00
2022-09-27T13:48:31.977Z,100.00
2022-09-27T13:51:02.232Z,100.00
2022-09-27T13:53:36.763Z,100.00
2022-09-27T13:56:03.837Z,100.00
2022-09-27T13:58:45.525Z,99.95
2022-09-27T14:02:18.766Z,99.90
2022-09-27T14:04:50.773Z,99.74
2022-09-27T14:07:21.636Z,99.67
2022-09-27T14:09:54.008Z,99.63
2022-09-27T14:12:28.614Z,99.64
2022-09-27T14:14:55.370Z,99.44
2022-09-27T14:17:22.016Z,99.41
2022-09-27T14:19:51.092Z,99.45
2022-09-27T14:22:19.049Z,99.57
2022-09-27T14:25:15.955Z,99.52
2022-09-27T14:27:42.638Z,99.52
2022-09-27T14:30:18.610Z,99.46
2022-09-27T14:32:57.718Z,99.32
2022-09-27T14:35:57.211Z,99.18
2022-09-27T14:38:38.187Z,99.16
2022-09-27T14:41:10.576Z,99.04
2022-09-27T14:43:42.655Z,99.06
2022-09-27T14:46:24.173Z,98.91
2022-09-27T14:48:50.737Z,98.84
2022-09-27T14:51:19.911Z,98.60
2022-09-27T14:53:57.880Z,98.59
2022-09-27T14:56:31.258Z,98.61
2022-09-27T14:59:01.894Z,98.55
2022-09-27T15:01:29.247Z,98.52
2022-09-27T15:04:02.028Z,98.38
2022-09-27T15:06:28.927Z,98.13
2022-09-27T15:08:56.092Z,97.99
2022-09-27T15:11:23.888Z,98.06
2022-09-27T15:13:51.899Z,97.85
2022-09-27T15:16:20.176Z,97.80
2022-09-27T15:18:48.560Z,97.80
2022-09-27T15:21:28.668Z,97.84
2022-09-27T15:23:56.050Z,97.85
2022-09-27T15:26:24.952Z,97.69
2022-09-27T15:28:51.688Z,97.60
2022-09-27T15:31:28.233Z,97.68
2022-09-27T15:33:58.461Z,97.63
2022-09-27T15:36:46.974Z,97.60
2022-09-27T15:39:16.837Z,97.47
2022-09-27T15:42:16.632Z,97.47
2022-09-27T15:47:42.471Z,97.23
2022-09-27T15:50:15.336Z,97.00
2022-09-27T15:52:43.408Z,96.87
2022-09-27T15:55:17.128Z,96.90
2022-09-27T15:57:44.866Z,96.82
2022-09-27T16:00:18.685Z,96.74
2022-09-27T16:02:45.526Z,96.88
2022-09-27T16:05:12.582Z,97.01
2022-09-27T16:07:39.365Z,97.30
2022-09-27T16:10:22.363Z,97.39
2022-09-27T16:12:50.877Z,97.50
2022-09-27T16:15:17.696Z,97.50
2022-09-27T16:17:44.426Z,97.68
2022-09-27T16:20:19.589Z,97.83
2022-09-27T16:22:46.286Z,98.00
2022-09-27T16:25:13.024Z,97.99
2022-09-27T16:27:39.817Z,98.14
2022-09-27T16:30:08.146Z,97.98
2022-09-27T16:32:36.068Z,98.10
2022-09-27T16:35:03.406Z,98.09
2022-09-27T16:37:30.428Z,98.47
2022-09-27T16:39:57.204Z,98.55
2022-09-27T16:42:23.892Z,98.91
2022-09-27T16:44:50.665Z,99.17
2022-09-27T16:47:17.497Z,99.21
2022-09-27T16:50:02.961Z,99.18
2022-09-27T16:52:31.568Z,99.43
2022-09-27T16:54:59.287Z,99.50
2022-09-27T16:57:28.303Z,99.46
2022-09-27T16:59:57.633Z,99.52
2022-09-27T17:02:24.770Z,99.61
2022-09-27T17:04:51.873Z,99.75
2022-09-27T17:07:18.665Z,99.57
2022-09-27T17:09:45.476Z,99.72
2022-09-27T17:12:13.168Z,99.72
2022-09-27T17:14:40.041Z,99.65
2022-09-27T17:17:07.164Z,99.84
2022-09-27T17:19:34.057Z,99.93
2022-09-27T17:22:01.479Z,99.95
2022-09-27T17:24:28.434Z,99.91
2022-09-27T17:26:55.600Z,99.94
2022-09-27T17:29:22.436Z,99.98
2022-09-27T17:31:50.579Z,99.92
2022-09-27T17:34:17.723Z,99.91
2022-09-27T17:36:48.434Z,99.97
2022-09-27T17:39:16.556Z,99.85
2022-09-27T17:41:43.915Z,99.72
2022-09-27T17:44:14.959Z,99.81
2022-09-27T17:46:42.857Z,99.55
2022-09-27T17:49:28.714Z,99.69
2022-09-27T17:51:55.631Z,99.41
2022-09-27T17:54:23.621Z,99.09
2022-09-27T17:56:51.307Z,99.26
2022-09-27T17:59:18.272Z,99.33
2022-09-27T18:01:45.999Z,99.44
2022-09-27T18:04:14.722Z,99.66
2022-09-27T18:06:42.350Z,99.54
2022-09-27T18:09:09.900Z,99.28
2022-09-27T18:11:37.387Z,99.44
2022-09-27T18:14:04.842Z,99.19
2022-09-27T18:16:37.046Z,99.25
2022-09-27T18:19:04.966Z,99.21
2022-09-27T18:21:31.921Z,99.31
2022-09-27T18:24:00.259Z,99.32
2022-09-27T18:26:27.681Z,99.44
2022-09-27T18:28:56.207Z,99.26
2022-09-27T18:31:23.905Z,99.26
2022-09-27T18:33:50.808Z,99.29
2022-09-27T18:36:19.536Z,99.58
2022-09-27T18:38:47.475Z,99.68
2022-09-27T18:41:15.869Z,99.76
2022-09-27T18:43:43.429Z,99.82
2022-09-27T18:46:34.513Z,99.94
2022-09-27T18:49:10.583Z,99.85
2022-09-27T18:51:40.090Z,99.93
2022-09-27T18:54:10.254Z,99.96
2022-09-27T18:56:41.239Z,100.00
2022-09-27T18:59:09.017Z,100.00
2022-09-27T19:01:40.591Z,100.00
2022-09-27T19:04:08.279Z,100.00
2022-09-27T19:06:35.921Z,100.00
2022-09-27T19:09:04.072Z,100.00
2022-09-27T19:11:31.003Z,100.00
2022-09-27T19:13:58.258Z,100.00
2022-09-27T19:16:25.943Z,100.00
2022-09-27T19:18:53.122Z,100.00
2022-09-27T19:21:21.551Z,100.00
2022-09-27T19:23:49.173Z,100.00
2022-09-27T19:26:20.513Z,100.00
2022-09-27T19:28:47.684Z,100.00
2022-09-27T19:31:16.313Z,100.00
2022-09-27T19:33:43.443Z,100.00
2022-09-27T19:36:11.367Z,100.00
2022-09-27T19:38:38.617Z,100.00
2022-09-27T19:41:06.329Z,100.00
2022-09-27T19:43:34.726Z,100.00
2022-09-27T19:46:08.973Z,100.00
2022-09-27T19:48:36.509Z,100.00
2022-09-27T19:51:03.493Z,100.00
2022-09-27T19:53:32.214Z,100.00
2022-09-27T19:56:04.167Z,100.00
2022-09-27T19:58:32.016Z,100.00
2022-09-27T20:01:22.144Z,100.00
2022-09-27T20:03:49.913Z,100.00
2022-09-27T20:06:17.840Z,100.00
2022-09-27T20:08:44.839Z,100.00
2022-09-27T20:11:13.294Z,100.00
2022-09-27T20:13:40.518Z,100.00
2022-09-27T20:16:25.922Z,100.00
2022-09-27T20:18:57.243Z,100.00
2022-09-27T20:21:32.633Z,100.00
2022-09-27T20:23:59.774Z,100.00
2022-09-27T20:26:27.630Z,100.00
2022-09-27T20:28:57.035Z,100.00
2022-09-27T20:31:34.528Z,100.00
2022-09-27T20:34:01.376Z,100.00
2022-09-27T20:36:32.812Z,100.00
2022-09-27T20:39:10.865Z,100.00
2022-09-27T20:41:41.973Z,100.00
2022-09-27T20:44:13.609Z,100.00
2022-09-27T20:46:41.009Z,100.00
2022-09-27T20:49:09.254Z,100.00
2022-09-27T20:51:36.863Z,100.00
2022-09-27T20:54:04.262Z,100.00
2022-09-27T20:56:33.871Z,100.00
2022-09-27T20:59:14.995Z,100.00
2022-09-27T21:01:43.771Z,100.00
2022-09-27T21:04:10.827Z,100.00
2022-09-27T21:06:37.582Z,100.00
2022-09-27T21:09:05.417Z,100.00
2022-09-27T21:11:32.288Z,100.00
2022-09-27T21:13:58.938Z,100.00
2022-09-27T21:16:27.083Z,100.00
2022-09-27T21:18:55.070Z,100.00
2022-09-27T21:21:22.528Z,100.00
2022-09-27T21:23:54.023Z,100.00
2022-09-27T21:26:21.154Z,100.00
2022-09-27T21:28:52.201Z,100.00
2022-09-27T21:31:23.011Z,100.00
2022-09-27T21:33:53.674Z,100.00
2022-09-27T21:36:21.411Z,100.00
2022-09-27T21:38:48.135Z,100.00
2022-09-27T21:41:15.581Z,100.00
2022-09-27T21:43:43.321Z,100.00
2022-09-27T21:46:11.732Z,100.00
2022-09-27T21:48:39.731Z,100.00
2022-09-27T21:51:15.341Z,100.00
2022-09-27T21:53:43.771Z,100.00
2022-09-27T21:56:10.897Z,100.00
2022-09-27T21:58:40.101Z,100.00
2022-09-27T22:01:25.764Z,100.00
2022-09-27T22:03:54.079Z,100.00
2022-09-27T22:06:25.131Z,100.00
2022-09-27T22:08:52.098Z,100.00
2022-09-27T22:11:21.027Z,100.00
2022-09-27T22:13:47.875Z,100.00
2022-09-27T22:16:16.480Z,100.00
2022-09-27T22:18:47.340Z,100.00
2022-09-27T22:21:16.296Z,100.00
2022-09-27T22:23:43.115Z,100.00
2022-09-27T22:26:17.994Z,100.00
2022-09-27T22:28:45.208Z,100.00
2022-09-27T22:31:14.580Z,100.00
2022-09-27T22:33:42.318Z,100.00
2022-09-27T22:36:09.053Z,100.00
2022-09-27T22:38:35.807Z,100.00
2022-09-27T22:41:02.731Z,100.00
2022-09-27T22:43:29.450Z,100.00
2022-09-27T22:45:56.938Z,100.00
2022-09-27T22:48:23.607Z,100.00
2022-09-27T22:50:50.278Z,100.00
2022-09-27T22:53:16.972Z,100.00
2022-09-27T22:55:43.674Z,100.00
2022-09-27T22:58:10.455Z,100.00
2022-09-27T23:00:38.146Z,100.00
2022-09-27T23:03:04.833Z,100.00
2022-09-27T23:05:31.507Z,100.00
2022-09-27T23:07:58.229Z,100.00
2022-09-27T23:10:24.948Z,100.00
2022-09-27T23:12:53.294Z,100.00
2022-09-27T23:15:20.003Z,100.00
2022-09-27T23:17:50.315Z,100.00
2022-09-27T23:20:17.550Z,100.00
2022-09-27T23:22:47.233Z,100.00
2022-09-27T23:25:13.996Z,100.00
2022-09-27T23:27:45.207Z,100.00
2022-09-27T23:30:13.316Z,100.00
2022-09-27T23:32:40.568Z,100.00
2022-09-27T23:35:07.545Z,99.98
2022-09-27T23:37:34.260Z,100.00
2022-09-27T23:40:01.137Z,99.79
2022-09-27T23:42:27.821Z,99.56
2022-09-27T23:44:55.948Z,99.35
2022-09-27T23:47:22.971Z,99.44
2022-09-27T23:49:49.664Z,99.02
2022-09-27T23:52:16.399Z,99.07
2022-09-27T23:54:43.139Z,99.06
2022-09-27T23:57:09.847Z,98.91
2022-09-27T23:59:38.397Z,98.94
